sensor_id;sensor_type;location;lat;lon;timestamp;P1;durP1;ratioP1;P2;durP2;ratioP2
14040;SDS011;7095;51.388;6.196;2022-08-03T00:00:34;3.20;;;2.40;;
14040;SDS011;7095;51.388;6.196;2022-08-03T00:03:03;6.23;;;2.97;;
14040;SDS011;7095;51.388;6.196;2022-08-03T00:05:32;3.60;;;3.30;;
14040;SDS011;7095;51.388;6.196;2022-08-03T00:08:01;5.20;;;2.90;;
14040;SDS011;7095;51.388;6.196;2022-08-03T00:10:30;3.03;;;2.60;;
14040;SDS011;7095;51.388;6.196;2022-08-03T00:13:01;5.30;;;3.00;;
14040;SDS011;7095;51.388;6.196;2022-08-03T00:15:29;4.27;;;2.70;;
14040;SDS011;7095;51.388;6.196;2022-08-03T00:17:58;4.87;;;2.80;;
14040;SDS011;7095;51.388;6.196;2022-08-03T00:20:27;7.23;;;3.00;;
14040;SDS011;7095;51.388;6.196;2022-08-03T00:22:55;5.17;;;2.77;;
14040;SDS011;7095;51.388;6.196;2022-08-03T00:25:25;6.57;;;3.07;;
14040;SDS011;7095;51.388;6.196;2022-08-03T00:27:53;9.13;;;3.10;;
14040;SDS011;7095;51.388;6.196;2022-08-03T00:30:24;6.90;;;3.00;;
14040;SDS011;7095;51.388;6.196;2022-08-03T00:33:04;4.60;;;3.37;;
14040;SDS011;7095;51.388;6.196;2022-08-03T00:35:34;9.20;;;2.90;;
14040;SDS011;7095;51.388;6.196;2022-08-03T00:38:17;7.27;;;3.33;;
14040;SDS011;7095;51.388;6.196;2022-08-03T00:40:46;9.23;;;2.90;;
14040;SDS011;7095;51.388;6.196;2022-08-03T00:43:14;6.47;;;3.00;;
14040;SDS011;7095;51.388;6.196;2022-08-03T00:45:45;4.43;;;2.83;;
14040;SDS011;7095;51.388;6.196;2022-08-03T00:48:15;8.27;;;3.23;;
14040;SDS011;7095;51.388;6.196;2022-08-03T00:51:04;7.07;;;3.20;;
14040;SDS011;7095;51.388;6.196;2022-08-03T00:53:33;6.63;;;3.00;;
14040;SDS011;7095;51.388;6.196;2022-08-03T00:56:04;5.80;;;3.27;;
14040;SDS011;7095;51.388;6.196;2022-08-03T00:58:33;3.83;;;3.07;;
14040;SDS011;7095;51.388;6.196;2022-08-03T01:01:03;4.00;;;2.83;;
14040;SDS011;7095;51.388;6.196;2022-08-03T01:03:33;6.67;;;3.10;;
14040;SDS011;7095;51.388;6.196;2022-08-03T01:06:03;7.47;;;3.17;;
14040;SDS011;7095;51.388;6.196;2022-08-03T01:08:42;6.90;;;2.53;;
14040;SDS011;7095;51.388;6.196;2022-08-03T01:11:15;5.83;;;3.43;;
14040;SDS011;7095;51.388;6.196;2022-08-03T01:13:53;4.10;;;2.60;;
14040;SDS011;7095;51.388;6.196;2022-08-03T01:16:50;4.67;;;2.80;;
14040;SDS011;7095;51.388;6.196;2022-08-03T01:19:30;4.13;;;2.77;;
14040;SDS011;7095;51.388;6.196;2022-08-03T01:22:17;10.43;;;3.40;;
14040;SDS011;7095;51.388;6.196;2022-08-03T01:25:05;9.20;;;3.13;;
14040;SDS011;7095;51.388;6.196;2022-08-03T01:27:46;8.33;;;3.30;;
14040;SDS011;7095;51.388;6.196;2022-08-03T01:30:38;4.93;;;2.87;;
14040;SDS011;7095;51.388;6.196;2022-08-03T01:33:11;5.50;;;2.77;;
14040;SDS011;7095;51.388;6.196;2022-08-03T01:35:45;8.00;;;3.27;;
14040;SDS011;7095;51.388;6.196;2022-08-03T01:38:23;7.77;;;2.83;;
14040;SDS011;7095;51.388;6.196;2022-08-03T01:40:55;6.73;;;3.07;;
14040;SDS011;7095;51.388;6.196;2022-08-03T01:43:25;5.70;;;2.83;;
14040;SDS011;7095;51.388;6.196;2022-08-03T01:46:17;6.03;;;3.63;;
14040;SDS011;7095;51.388;6.196;2022-08-03T01:48:47;13.63;;;3.43;;
14040;SDS011;7095;51.388;6.196;2022-08-03T01:51:18;6.67;;;3.13;;
14040;SDS011;7095;51.388;6.196;2022-08-03T01:53:48;7.73;;;2.97;;
14040;SDS011;7095;51.388;6.196;2022-08-03T01:56:21;6.93;;;3.00;;
14040;SDS011;7095;51.388;6.196;2022-08-03T01:58:52;7.43;;;2.90;;
14040;SDS011;7095;51.388;6.196;2022-08-03T02:01:23;9.67;;;3.40;;
14040;SDS011;7095;51.388;6.196;2022-08-03T02:04:14;5.17;;;3.00;;
14040;SDS011;7095;51.388;6.196;2022-08-03T02:06:46;7.53;;;3.17;;
14040;SDS011;7095;51.388;6.196;2022-08-03T02:09:28;10.67;;;3.57;;
14040;SDS011;7095;51.388;6.196;2022-08-03T02:11:57;7.87;;;3.27;;
14040;SDS011;7095;51.388;6.196;2022-08-03T02:14:28;4.20;;;3.47;;
14040;SDS011;7095;51.388;6.196;2022-08-03T02:16:59;10.57;;;3.83;;
14040;SDS011;7095;51.388;6.196;2022-08-03T02:19:28;6.23;;;3.03;;
14040;SDS011;7095;51.388;6.196;2022-08-03T02:22:01;9.70;;;3.27;;
14040;SDS011;7095;51.388;6.196;2022-08-03T02:24:32;9.57;;;3.50;;
14040;SDS011;7095;51.388;6.196;2022-08-03T02:27:00;10.63;;;3.30;;
14040;SDS011;7095;51.388;6.196;2022-08-03T02:29:33;8.20;;;3.50;;
14040;SDS011;7095;51.388;6.196;2022-08-03T02:32:11;8.83;;;3.37;;
14040;SDS011;7095;51.388;6.196;2022-08-03T02:34:43;7.67;;;3.60;;
14040;SDS011;7095;51.388;6.196;2022-08-03T02:37:16;8.47;;;3.13;;
14040;SDS011;7095;51.388;6.196;2022-08-03T02:39:46;6.83;;;3.10;;
14040;SDS011;7095;51.388;6.196;2022-08-03T02:42:20;8.33;;;3.10;;
14040;SDS011;7095;51.388;6.196;2022-08-03T02:44:50;8.23;;;3.30;;
14040;SDS011;7095;51.388;6.196;2022-08-03T02:47:23;6.90;;;3.20;;
14040;SDS011;7095;51.388;6.196;2022-08-03T02:50:15;7.93;;;3.53;;
14040;SDS011;7095;51.388;6.196;2022-08-03T02:52:46;7.43;;;3.20;;
14040;SDS011;7095;51.388;6.196;2022-08-03T02:55:16;7.03;;;3.07;;
14040;SDS011;7095;51.388;6.196;2022-08-03T02:57:47;8.00;;;3.50;;
14040;SDS011;7095;51.388;6.196;2022-08-03T03:00:17;9.70;;;3.20;;
14040;SDS011;7095;51.388;6.196;2022-08-03T03:02:56;5.37;;;3.60;;
14040;SDS011;7095;51.388;6.196;2022-08-03T03:05:26;5.13;;;3.83;;
14040;SDS011;7095;51.388;6.196;2022-08-03T03:08:17;14.23;;;3.93;;
14040;SDS011;7095;51.388;6.196;2022-08-03T03:10:54;6.73;;;3.50;;
14040;SDS011;7095;51.388;6.196;2022-08-03T03:13:26;6.43;;;3.33;;
14040;SDS011;7095;51.388;6.196;2022-08-03T03:15:56;5.33;;;2.87;;
14040;SDS011;7095;51.388;6.196;2022-08-03T03:18:29;12.50;;;3.43;;
14040;SDS011;7095;51.388;6.196;2022-08-03T03:21:00;7.27;;;3.30;;
14040;SDS011;7095;51.388;6.196;2022-08-03T03:23:30;7.37;;;3.40;;
14040;SDS011;7095;51.388;6.196;2022-08-03T03:26:02;9.67;;;3.80;;
14040;SDS011;7095;51.388;6.196;2022-08-03T03:28:32;10.10;;;3.77;;
14040;SDS011;7095;51.388;6.196;2022-08-03T03:31:03;6.00;;;3.50;;
14040;SDS011;7095;51.388;6.196;2022-08-03T03:33:34;9.83;;;3.50;;
14040;SDS011;7095;51.388;6.196;2022-08-03T03:36:04;7.20;;;3.30;;
14040;SDS011;7095;51.388;6.196;2022-08-03T03:38:35;7.97;;;3.30;;
14040;SDS011;7095;51.388;6.196;2022-08-03T03:41:04;12.23;;;4.17;;
14040;SDS011;7095;51.388;6.196;2022-08-03T03:43:33;7.70;;;4.20;;
14040;SDS011;7095;51.388;6.196;2022-08-03T03:46:01;4.57;;;3.27;;
14040;SDS011;7095;51.388;6.196;2022-08-03T03:48:31;6.20;;;3.57;;
14040;SDS011;7095;51.388;6.196;2022-08-03T03:51:02;6.57;;;4.10;;
14040;SDS011;7095;51.388;6.196;2022-08-03T03:53:30;8.57;;;3.93;;
14040;SDS011;7095;51.388;6.196;2022-08-03T03:55:59;4.83;;;3.33;;
14040;SDS011;7095;51.388;6.196;2022-08-03T03:58:29;10.07;;;3.50;;
14040;SDS011;7095;51.388;6.196;2022-08-03T04:00:59;7.23;;;3.87;;
14040;SDS011;7095;51.388;6.196;2022-08-03T04:03:28;6.47;;;3.63;;
14040;SDS011;7095;51.388;6.196;2022-08-03T04:05:58;5.37;;;3.80;;
14040;SDS011;7095;51.388;6.196;2022-08-03T04:08:44;10.70;;;3.60;;
14040;SDS011;7095;51.388;6.196;2022-08-03T04:11:39;5.60;;;3.70;;
14040;SDS011;7095;51.388;6.196;2022-08-03T04:14:14;9.40;;;3.60;;
14040;SDS011;7095;51.388;6.196;2022-08-03T04:16:47;14.60;;;4.10;;
14040;SDS011;7095;51.388;6.196;2022-08-03T04:19:20;3.60;;;3.20;;
14040;SDS011;7095;51.388;6.196;2022-08-03T04:21:58;9.57;;;4.07;;
14040;SDS011;7095;51.388;6.196;2022-08-03T04:24:32;7.03;;;3.57;;
14040;SDS011;7095;51.388;6.196;2022-08-03T04:27:04;10.90;;;3.83;;
14040;SDS011;7095;51.388;6.196;2022-08-03T04:29:38;7.73;;;4.43;;
14040;SDS011;7095;51.388;6.196;2022-08-03T04:32:14;6.93;;;3.93;;
14040;SDS011;7095;51.388;6.196;2022-08-03T04:34:44;7.57;;;3.80;;
14040;SDS011;7095;51.388;6.196;2022-08-03T04:37:17;5.80;;;3.60;;
14040;SDS011;7095;51.388;6.196;2022-08-03T04:39:52;4.97;;;4.47;;
14040;SDS011;7095;51.388;6.196;2022-08-03T04:42:23;7.63;;;4.37;;
14040;SDS011;7095;51.388;6.196;2022-08-03T04:44:52;3.70;;;3.10;;
14040;SDS011;7095;51.388;6.196;2022-08-03T04:47:28;6.70;;;3.97;;
14040;SDS011;7095;51.388;6.196;2022-08-03T04:49:59;5.27;;;4.23;;
14040;SDS011;7095;51.388;6.196;2022-08-03T04:52:30;7.57;;;4.87;;
14040;SDS011;7095;51.388;6.196;2022-08-03T04:54:59;7.47;;;3.77;;
14040;SDS011;7095;51.388;6.196;2022-08-03T04:57:28;6.57;;;3.97;;
14040;SDS011;7095;51.388;6.196;2022-08-03T04:59:56;7.13;;;4.77;;
14040;SDS011;7095;51.388;6.196;2022-08-03T05:02:30;5.57;;;4.13;;
14040;SDS011;7095;51.388;6.196;2022-08-03T05:04:59;5.13;;;3.63;;
14040;SDS011;7095;51.388;6.196;2022-08-03T05:07:28;8.63;;;4.33;;
14040;SDS011;7095;51.388;6.196;2022-08-03T05:10:04;6.43;;;4.10;;
14040;SDS011;7095;51.388;6.196;2022-08-03T05:12:46;6.50;;;4.40;;
14040;SDS011;7095;51.388;6.196;2022-08-03T05:15:17;4.27;;;3.87;;
14040;SDS011;7095;51.388;6.196;2022-08-03T05:17:46;8.03;;;4.30;;
14040;SDS011;7095;51.388;6.196;2022-08-03T05:20:16;7.83;;;4.47;;
14040;SDS011;7095;51.388;6.196;2022-08-03T05:22:45;16.83;;;5.70;;
14040;SDS011;7095;51.388;6.196;2022-08-03T05:25:15;9.87;;;5.07;;
14040;SDS011;7095;51.388;6.196;2022-08-03T05:27:48;6.87;;;4.90;;
14040;SDS011;7095;51.388;6.196;2022-08-03T05:30:16;9.07;;;4.93;;
14040;SDS011;7095;51.388;6.196;2022-08-03T05:33:00;9.60;;;5.30;;
14040;SDS011;7095;51.388;6.196;2022-08-03T05:35:30;8.93;;;5.00;;
14040;SDS011;7095;51.388;6.196;2022-08-03T05:38:20;8.60;;;5.63;;
14040;SDS011;7095;51.388;6.196;2022-08-03T05:41:00;12.27;;;5.53;;
14040;SDS011;7095;51.388;6.196;2022-08-03T05:43:49;11.80;;;5.50;;
14040;SDS011;7095;51.388;6.196;2022-08-03T05:46:18;8.13;;;4.87;;
14040;SDS011;7095;51.388;6.196;2022-08-03T05:48:47;11.53;;;5.37;;
14040;SDS011;7095;51.388;6.196;2022-08-03T05:51:16;10.10;;;5.73;;
14040;SDS011;7095;51.388;6.196;2022-08-03T05:53:45;12.40;;;6.23;;
14040;SDS011;7095;51.388;6.196;2022-08-03T05:56:15;11.43;;;6.13;;
14040;SDS011;7095;51.388;6.196;2022-08-03T05:58:45;8.60;;;5.17;;
14040;SDS011;7095;51.388;6.196;2022-08-03T06:01:15;13.00;;;5.87;;
14040;SDS011;7095;51.388;6.196;2022-08-03T06:03:44;10.50;;;6.10;;
14040;SDS011;7095;51.388;6.196;2022-08-03T06:06:13;12.37;;;6.67;;
14040;SDS011;7095;51.388;6.196;2022-08-03T06:08:42;13.90;;;5.73;;
14040;SDS011;7095;51.388;6.196;2022-08-03T06:11:16;11.17;;;5.83;;
14040;SDS011;7095;51.388;6.196;2022-08-03T06:13:44;10.50;;;6.03;;
14040;SDS011;7095;51.388;6.196;2022-08-03T06:16:13;12.23;;;6.47;;
14040;SDS011;7095;51.388;6.196;2022-08-03T06:18:42;10.10;;;6.10;;
14040;SDS011;7095;51.388;6.196;2022-08-03T06:21:10;12.30;;;6.27;;
14040;SDS011;7095;51.388;6.196;2022-08-03T06:23:43;11.90;;;5.77;;
14040;SDS011;7095;51.388;6.196;2022-08-03T06:26:25;9.67;;;5.67;;
14040;SDS011;7095;51.388;6.196;2022-08-03T06:28:55;11.90;;;5.77;;
14040;SDS011;7095;51.388;6.196;2022-08-03T06:31:25;11.87;;;6.00;;
14040;SDS011;7095;51.388;6.196;2022-08-03T06:34:00;14.40;;;6.57;;
14040;SDS011;7095;51.388;6.196;2022-08-03T06:36:50;9.27;;;6.23;;
14040;SDS011;7095;51.388;6.196;2022-08-03T06:39:19;12.97;;;6.17;;
14040;SDS011;7095;51.388;6.196;2022-08-03T06:41:51;15.37;;;6.93;;
14040;SDS011;7095;51.388;6.196;2022-08-03T06:44:21;9.50;;;5.47;;
14040;SDS011;7095;51.388;6.196;2022-08-03T06:46:49;11.93;;;5.70;;
14040;SDS011;7095;51.388;6.196;2022-08-03T06:49:18;9.37;;;5.47;;
14040;SDS011;7095;51.388;6.196;2022-08-03T06:51:47;10.47;;;5.97;;
14040;SDS011;7095;51.388;6.196;2022-08-03T06:54:32;11.07;;;5.50;;
14040;SDS011;7095;51.388;6.196;2022-08-03T06:57:03;9.20;;;4.60;;
14040;SDS011;7095;51.388;6.196;2022-08-03T06:59:34;17.03;;;4.30;;
14040;SDS011;7095;51.388;6.196;2022-08-03T07:02:22;10.20;;;4.03;;
14040;SDS011;7095;51.388;6.196;2022-08-03T07:04:57;11.60;;;3.90;;
14040;SDS011;7095;51.388;6.196;2022-08-03T07:07:25;8.43;;;3.60;;
14040;SDS011;7095;51.388;6.196;2022-08-03T07:09:54;10.63;;;4.47;;
14040;SDS011;7095;51.388;6.196;2022-08-03T07:12:26;13.63;;;4.30;;
14040;SDS011;7095;51.388;6.196;2022-08-03T07:14:56;7.37;;;3.57;;
14040;SDS011;7095;51.388;6.196;2022-08-03T07:17:31;8.20;;;4.10;;
14040;SDS011;7095;51.388;6.196;2022-08-03T07:20:01;10.80;;;4.43;;
14040;SDS011;7095;51.388;6.196;2022-08-03T07:22:32;10.50;;;4.03;;
14040;SDS011;7095;51.388;6.196;2022-08-03T07:25:02;8.63;;;4.17;;
14040;SDS011;7095;51.388;6.196;2022-08-03T07:27:32;6.13;;;3.60;;
14040;SDS011;7095;51.388;6.196;2022-08-03T07:30:01;10.87;;;3.97;;
14040;SDS011;7095;51.388;6.196;2022-08-03T07:32:34;6.70;;;4.03;;
14040;SDS011;7095;51.388;6.196;2022-08-03T07:35:16;4.57;;;3.20;;
14040;SDS011;7095;51.388;6.196;2022-08-03T07:37:51;11.07;;;3.70;;
14040;SDS011;7095;51.388;6.196;2022-08-03T07:40:21;12.40;;;3.80;;
14040;SDS011;7095;51.388;6.196;2022-08-03T07:42:57;11.67;;;3.13;;
14040;SDS011;7095;51.388;6.196;2022-08-03T07:45:26;5.87;;;2.90;;
14040;SDS011;7095;51.388;6.196;2022-08-03T07:47:55;8.43;;;3.50;;
14040;SDS011;7095;51.388;6.196;2022-08-03T07:50:24;14.03;;;3.30;;
14040;SDS011;7095;51.388;6.196;2022-08-03T07:52:53;8.60;;;2.80;;
14040;SDS011;7095;51.388;6.196;2022-08-03T07:55:22;10.10;;;3.40;;
14040;SDS011;7095;51.388;6.196;2022-08-03T07:58:02;6.53;;;2.87;;
14040;SDS011;7095;51.388;6.196;2022-08-03T08:00:32;7.23;;;2.03;;
14040;SDS011;7095;51.388;6.196;2022-08-03T08:03:02;8.17;;;2.60;;
14040;SDS011;7095;51.388;6.196;2022-08-03T08:05:31;7.00;;;2.23;;
14040;SDS011;7095;51.388;6.196;2022-08-03T08:08:00;4.73;;;1.57;;
14040;SDS011;7095;51.388;6.196;2022-08-03T08:10:29;8.47;;;1.87;;
14040;SDS011;7095;51.388;6.196;2022-08-03T08:12:58;11.67;;;2.50;;
14040;SDS011;7095;51.388;6.196;2022-08-03T08:15:29;7.43;;;2.47;;
14040;SDS011;7095;51.388;6.196;2022-08-03T08:17:58;8.17;;;1.93;;
14040;SDS011;7095;51.388;6.196;2022-08-03T08:20:30;4.87;;;2.20;;
14040;SDS011;7095;51.388;6.196;2022-08-03T08:23:04;8.90;;;2.00;;
14040;SDS011;7095;51.388;6.196;2022-08-03T08:25:54;6.93;;;2.43;;
14040;SDS011;7095;51.388;6.196;2022-08-03T08:28:23;4.47;;;1.53;;
14040;SDS011;7095;51.388;6.196;2022-08-03T08:31:00;8.93;;;2.30;;
14040;SDS011;7095;51.388;6.196;2022-08-03T08:33:29;6.83;;;1.67;;
14040;SDS011;7095;51.388;6.196;2022-08-03T08:36:18;5.00;;;1.80;;
14040;SDS011;7095;51.388;6.196;2022-08-03T08:38:47;7.07;;;1.90;;
14040;SDS011;7095;51.388;6.196;2022-08-03T08:41:16;4.10;;;1.33;;
14040;SDS011;7095;51.388;6.196;2022-08-03T08:43:45;8.50;;;2.10;;
14040;SDS011;7095;51.388;6.196;2022-08-03T08:46:15;8.47;;;1.97;;
14040;SDS011;7095;51.388;6.196;2022-08-03T08:48:50;6.40;;;2.20;;
14040;SDS011;7095;51.388;6.196;2022-08-03T08:51:21;6.10;;;1.83;;
14040;SDS011;7095;51.388;6.196;2022-08-03T08:54:14;7.37;;;2.00;;
14040;SDS011;7095;51.388;6.196;2022-08-03T08:56:48;7.67;;;2.23;;
14040;SDS011;7095;51.388;6.196;2022-08-03T08:59:18;8.97;;;2.50;;
14040;SDS011;7095;51.388;6.196;2022-08-03T09:01:49;5.33;;;2.00;;
14040;SDS011;7095;51.388;6.196;2022-08-03T09:04:17;3.50;;;1.70;;
14040;SDS011;7095;51.388;6.196;2022-08-03T09:06:46;6.37;;;2.40;;
14040;SDS011;7095;51.388;6.196;2022-08-03T09:09:35;7.63;;;1.77;;
14040;SDS011;7095;51.388;6.196;2022-08-03T09:12:24;3.03;;;1.77;;
14040;SDS011;7095;51.388;6.196;2022-08-03T09:15:19;5.03;;;2.00;;
14040;SDS011;7095;51.388;6.196;2022-08-03T09:17:52;7.77;;;1.70;;
14040;SDS011;7095;51.388;6.196;2022-08-03T09:20:24;7.13;;;2.30;;
14040;SDS011;7095;51.388;6.196;2022-08-03T09:22:54;8.40;;;2.30;;
14040;SDS011;7095;51.388;6.196;2022-08-03T09:25:28;7.10;;;2.00;;
14040;SDS011;7095;51.388;6.196;2022-08-03T09:28:05;5.63;;;2.20;;
14040;SDS011;7095;51.388;6.196;2022-08-03T09:30:36;7.80;;;1.80;;
14040;SDS011;7095;51.388;6.196;2022-08-03T09:33:08;8.05;;;2.28;;
14040;SDS011;7095;51.388;6.196;2022-08-03T09:35:41;9.35;;;2.00;;
14040;SDS011;7095;51.388;6.196;2022-08-03T09:38:24;5.63;;;1.95;;
14040;SDS011;7095;51.388;6.196;2022-08-03T09:40:53;5.20;;;2.30;;
14040;SDS011;7095;51.388;6.196;2022-08-03T09:43:26;6.55;;;2.45;;
14040;SDS011;7095;51.388;6.196;2022-08-03T09:46:01;5.63;;;2.20;;
14040;SDS011;7095;51.388;6.196;2022-08-03T09:48:32;10.95;;;1.98;;
14040;SDS011;7095;51.388;6.196;2022-08-03T09:51:02;8.43;;;1.90;;
14040;SDS011;7095;51.388;6.196;2022-08-03T09:53:43;4.22;;;2.20;;
14040;SDS011;7095;51.388;6.196;2022-08-03T09:56:36;5.22;;;1.50;;
14040;SDS011;7095;51.388;6.196;2022-08-03T09:59:09;7.60;;;1.63;;
14040;SDS011;7095;51.388;6.196;2022-08-03T10:01:42;9.65;;;1.70;;
14040;SDS011;7095;51.388;6.196;2022-08-03T10:04:13;2.80;;;1.55;;
14040;SDS011;7095;51.388;6.196;2022-08-03T10:06:44;7.95;;;1.95;;
14040;SDS011;7095;51.388;6.196;2022-08-03T10:09:14;5.93;;;1.77;;
14040;SDS011;7095;51.388;6.196;2022-08-03T10:11:44;3.00;;;1.10;;
14040;SDS011;7095;51.388;6.196;2022-08-03T10:14:14;8.23;;;2.08;;
14040;SDS011;7095;51.388;6.196;2022-08-03T10:16:46;4.97;;;2.05;;
14040;SDS011;7095;51.388;6.196;2022-08-03T10:19:16;6.43;;;2.00;;
14040;SDS011;7095;51.388;6.196;2022-08-03T10:21:46;4.55;;;1.60;;
14040;SDS011;7095;51.388;6.196;2022-08-03T10:24:19;5.32;;;1.58;;
14040;SDS011;7095;51.388;6.196;2022-08-03T10:26:52;4.88;;;1.55;;
14040;SDS011;7095;51.388;6.196;2022-08-03T10:29:28;10.43;;;2.10;;
14040;SDS011;7095;51.388;6.196;2022-08-03T10:32:02;6.18;;;2.13;;
14040;SDS011;7095;51.388;6.196;2022-08-03T10:34:36;9.73;;;2.25;;
14040;SDS011;7095;51.388;6.196;2022-08-03T10:37:10;5.97;;;1.80;;
14040;SDS011;7095;51.388;6.196;2022-08-03T10:39:41;3.40;;;1.63;;
14040;SDS011;7095;51.388;6.196;2022-08-03T10:42:20;7.15;;;1.58;;
14040;SDS011;7095;51.388;6.196;2022-08-03T10:44:55;3.67;;;1.42;;
14040;SDS011;7095;51.388;6.196;2022-08-03T10:47:30;5.60;;;1.30;;
14040;SDS011;7095;51.388;6.196;2022-08-03T10:50:02;5.68;;;1.67;;
14040;SDS011;7095;51.388;6.196;2022-08-03T10:52:32;4.97;;;1.70;;
14040;SDS011;7095;51.388;6.196;2022-08-03T10:58:23;6.68;;;1.42;;
14040;SDS011;7095;51.388;6.196;2022-08-03T11:04:26;5.50;;;1.42;;
14040;SDS011;7095;51.388;6.196;2022-08-03T11:09:50;4.68;;;1.10;;
14040;SDS011;7095;51.388;6.196;2022-08-03T11:12:20;22.70;;;1.58;;
14040;SDS011;7095;51.388;6.196;2022-08-03T11:14:57;4.97;;;1.60;;
14040;SDS011;7095;51.388;6.196;2022-08-03T11:17:30;5.80;;;1.15;;
14040;SDS011;7095;51.388;6.196;2022-08-03T11:20:12;5.38;;;1.70;;
14040;SDS011;7095;51.388;6.196;2022-08-03T11:22:49;3.63;;;1.25;;
14040;SDS011;7095;51.388;6.196;2022-08-03T11:25:20;8.30;;;2.05;;
14040;SDS011;7095;51.388;6.196;2022-08-03T11:28:24;6.05;;;1.08;;
14040;SDS011;7095;51.388;6.196;2022-08-03T11:30:54;4.55;;;1.58;;
14040;SDS011;7095;51.388;6.196;2022-08-03T11:33:27;4.97;;;1.33;;
14040;SDS011;7095;51.388;6.196;2022-08-03T11:35:57;5.57;;;1.30;;
14040;SDS011;7095;51.388;6.196;2022-08-03T11:38:29;2.67;;;1.17;;
14040;SDS011;7095;51.388;6.196;2022-08-03T11:40:57;3.17;;;1.63;;
14040;SDS011;7095;51.388;6.196;2022-08-03T11:43:43;7.25;;;1.67;;
14040;SDS011;7095;51.388;6.196;2022-08-03T11:46:13;6.05;;;1.45;;
14040;SDS011;7095;51.388;6.196;2022-08-03T11:49:01;7.05;;;1.95;;
14040;SDS011;7095;51.388;6.196;2022-08-03T11:51:36;6.13;;;1.65;;
14040;SDS011;7095;51.388;6.196;2022-08-03T11:54:07;3.75;;;1.40;;
14040;SDS011;7095;51.388;6.196;2022-08-03T11:56:44;4.95;;;1.55;;
14040;SDS011;7095;51.388;6.196;2022-08-03T11:59:13;2.85;;;1.30;;
14040;SDS011;7095;51.388;6.196;2022-08-03T12:01:48;10.73;;;1.83;;
14040;SDS011;7095;51.388;6.196;2022-08-03T12:04:17;7.13;;;1.48;;
14040;SDS011;7095;51.388;6.196;2022-08-03T12:06:58;7.43;;;1.85;;
14040;SDS011;7095;51.388;6.196;2022-08-03T12:09:30;3.42;;;1.08;;
14040;SDS011;7095;51.388;6.196;2022-08-03T12:12:01;3.63;;;1.30;;
14040;SDS011;7095;51.388;6.196;2022-08-03T12:14:32;5.07;;;1.27;;
14040;SDS011;7095;51.388;6.196;2022-08-03T12:17:17;5.40;;;1.42;;
14040;SDS011;7095;51.388;6.196;2022-08-03T12:19:46;6.95;;;1.50;;
14040;SDS011;7095;51.388;6.196;2022-08-03T12:22:15;5.25;;;1.20;;
14040;SDS011;7095;51.388;6.196;2022-08-03T12:24:45;4.10;;;1.30;;
14040;SDS011;7095;51.388;6.196;2022-08-03T12:27:21;5.18;;;1.23;;
14040;SDS011;7095;51.388;6.196;2022-08-03T12:29:51;5.55;;;1.83;;
14040;SDS011;7095;51.388;6.196;2022-08-03T12:32:24;2.33;;;0.90;;
14040;SDS011;7095;51.388;6.196;2022-08-03T12:34:54;4.03;;;1.52;;
14040;SDS011;7095;51.388;6.196;2022-08-03T12:37:27;3.78;;;1.10;;
14040;SDS011;7095;51.388;6.196;2022-08-03T12:39:59;4.03;;;1.23;;
14040;SDS011;7095;51.388;6.196;2022-08-03T12:42:36;7.07;;;1.45;;
14040;SDS011;7095;51.388;6.196;2022-08-03T12:45:19;7.60;;;1.52;;
14040;SDS011;7095;51.388;6.196;2022-08-03T12:47:49;7.40;;;1.80;;
14040;SDS011;7095;51.388;6.196;2022-08-03T12:50:25;5.03;;;1.50;;
14040;SDS011;7095;51.388;6.196;2022-08-03T12:52:55;3.63;;;0.93;;
14040;SDS011;7095;51.388;6.196;2022-08-03T12:55:26;7.03;;;1.23;;
14040;SDS011;7095;51.388;6.196;2022-08-03T12:58:30;3.95;;;1.00;;
14040;SDS011;7095;51.388;6.196;2022-08-03T13:01:03;6.70;;;0.98;;
14040;SDS011;7095;51.388;6.196;2022-08-03T13:03:39;14.02;;;1.50;;
14040;SDS011;7095;51.388;6.196;2022-08-03T13:06:16;3.90;;;1.40;;
14040;SDS011;7095;51.388;6.196;2022-08-03T13:08:46;7.40;;;1.50;;
14040;SDS011;7095;51.388;6.196;2022-08-03T13:11:20;5.72;;;1.85;;
14040;SDS011;7095;51.388;6.196;2022-08-03T13:14:09;5.13;;;1.35;;
14040;SDS011;7095;51.388;6.196;2022-08-03T13:16:42;8.45;;;1.88;;
14040;SDS011;7095;51.388;6.196;2022-08-03T13:19:11;7.85;;;1.50;;
14040;SDS011;7095;51.388;6.196;2022-08-03T13:21:41;5.28;;;1.25;;
14040;SDS011;7095;51.388;6.196;2022-08-03T13:24:31;3.58;;;1.08;;
14040;SDS011;7095;51.388;6.196;2022-08-03T13:27:01;6.00;;;1.92;;
14040;SDS011;7095;51.388;6.196;2022-08-03T13:29:52;7.47;;;1.70;;
14040;SDS011;7095;51.388;6.196;2022-08-03T13:32:22;2.63;;;1.38;;
14040;SDS011;7095;51.388;6.196;2022-08-03T13:34:52;4.57;;;1.65;;
14040;SDS011;7095;51.388;6.196;2022-08-03T13:37:20;7.93;;;1.50;;
14040;SDS011;7095;51.388;6.196;2022-08-03T13:39:49;4.88;;;1.45;;
14040;SDS011;7095;51.388;6.196;2022-08-03T13:42:28;6.15;;;1.30;;
14040;SDS011;7095;51.388;6.196;2022-08-03T13:44:57;4.00;;;1.38;;
14040;SDS011;7095;51.388;6.196;2022-08-03T13:47:26;4.45;;;1.10;;
14040;SDS011;7095;51.388;6.196;2022-08-03T13:49:55;8.27;;;1.77;;
14040;SDS011;7095;51.388;6.196;2022-08-03T13:52:30;3.25;;;1.10;;
14040;SDS011;7095;51.388;6.196;2022-08-03T13:55:00;8.00;;;1.38;;
14040;SDS011;7095;51.388;6.196;2022-08-03T13:57:31;2.90;;;2.13;;
14040;SDS011;7095;51.388;6.196;2022-08-03T14:00:20;8.70;;;1.75;;
14040;SDS011;7095;51.388;6.196;2022-08-03T14:02:55;6.93;;;1.10;;
14040;SDS011;7095;51.388;6.196;2022-08-03T14:05:32;6.95;;;1.70;;
14040;SDS011;7095;51.388;6.196;2022-08-03T14:08:03;5.10;;;1.13;;
14040;SDS011;7095;51.388;6.196;2022-08-03T14:10:33;5.28;;;1.73;;
14040;SDS011;7095;51.388;6.196;2022-08-03T14:13:05;4.70;;;1.42;;
14040;SDS011;7095;51.388;6.196;2022-08-03T14:15:33;8.25;;;1.80;;
14040;SDS011;7095;51.388;6.196;2022-08-03T14:18:04;5.03;;;1.52;;
14040;SDS011;7095;51.388;6.196;2022-08-03T14:20:42;4.68;;;1.40;;
14040;SDS011;7095;51.388;6.196;2022-08-03T14:23:17;6.78;;;1.70;;
14040;SDS011;7095;51.388;6.196;2022-08-03T14:25:47;4.43;;;1.42;;
14040;SDS011;7095;51.388;6.196;2022-08-03T14:28:20;4.38;;;1.60;;
14040;SDS011;7095;51.388;6.196;2022-08-03T14:30:50;5.95;;;1.60;;
14040;SDS011;7095;51.388;6.196;2022-08-03T14:33:20;2.80;;;1.15;;
14040;SDS011;7095;51.388;6.196;2022-08-03T14:35:50;7.05;;;1.88;;
14040;SDS011;7095;51.388;6.196;2022-08-03T14:38:20;6.10;;;1.75;;
14040;SDS011;7095;51.388;6.196;2022-08-03T14:40:49;8.43;;;2.25;;
14040;SDS011;7095;51.388;6.196;2022-08-03T14:43:20;9.23;;;1.95;;
14040;SDS011;7095;51.388;6.196;2022-08-03T14:45:49;5.57;;;1.60;;
14040;SDS011;7095;51.388;6.196;2022-08-03T14:48:19;4.88;;;1.60;;
14040;SDS011;7095;51.388;6.196;2022-08-03T14:51:09;4.75;;;1.67;;
14040;SDS011;7095;51.388;6.196;2022-08-03T14:53:37;7.72;;;1.48;;
14040;SDS011;7095;51.388;6.196;2022-08-03T14:56:06;7.10;;;2.03;;
14040;SDS011;7095;51.388;6.196;2022-08-03T14:58:38;4.65;;;1.58;;
14040;SDS011;7095;51.388;6.196;2022-08-03T15:01:06;5.50;;;1.50;;
14040;SDS011;7095;51.388;6.196;2022-08-03T15:03:55;4.68;;;1.30;;
14040;SDS011;7095;51.388;6.196;2022-08-03T15:06:24;7.93;;;1.98;;
14040;SDS011;7095;51.388;6.196;2022-08-03T15:08:52;6.68;;;2.13;;
14040;SDS011;7095;51.388;6.196;2022-08-03T15:11:41;11.73;;;1.63;;
14040;SDS011;7095;51.388;6.196;2022-08-03T15:14:11;5.07;;;1.70;;
14040;SDS011;7095;51.388;6.196;2022-08-03T15:16:40;7.18;;;2.28;;
14040;SDS011;7095;51.388;6.196;2022-08-03T15:19:10;4.85;;;1.88;;
14040;SDS011;7095;51.388;6.196;2022-08-03T15:21:59;10.43;;;1.75;;
14040;SDS011;7095;51.388;6.196;2022-08-03T15:24:27;6.15;;;1.88;;
14040;SDS011;7095;51.388;6.196;2022-08-03T15:26:56;9.13;;;2.40;;
14040;SDS011;7095;51.388;6.196;2022-08-03T15:29:27;6.95;;;1.65;;
14040;SDS011;7095;51.388;6.196;2022-08-03T15:32:15;4.45;;;1.40;;
14040;SDS011;7095;51.388;6.196;2022-08-03T15:34:45;3.92;;;1.20;;
14040;SDS011;7095;51.388;6.196;2022-08-03T15:37:17;6.50;;;1.83;;
14040;SDS011;7095;51.388;6.196;2022-08-03T15:39:46;5.05;;;1.30;;
14040;SDS011;7095;51.388;6.196;2022-08-03T15:42:26;2.72;;;1.65;;
14040;SDS011;7095;51.388;6.196;2022-08-03T15:44:57;6.55;;;1.80;;
14040;SDS011;7095;51.388;6.196;2022-08-03T15:47:26;5.95;;;2.08;;